sensor_id;sensor_type;location;lat;lon;timestamp;P1;durP1;ratioP1;P2;durP2;ratioP2
55268;SDS011;41131;42.990;21.954;2023-12-20T00:01:35;342.73;;;231.80;;
55268;SDS011;41131;42.990;21.954;2023-12-20T00:04:04;350.55;;;235.05;;
55268;SDS011;41131;42.990;21.954;2023-12-20T00:06:30;367.33;;;247.63;;
55268;SDS011;41131;42.990;21.954;2023-12-20T00:08:56;399.65;;;266.58;;
55268;SDS011;41131;42.990;21.954;2023-12-20T00:11:23;436.08;;;286.00;;
55268;SDS011;41131;42.990;21.954;2023-12-20T00:13:49;413.83;;;269.10;;
55268;SDS011;41131;42.990;21.954;2023-12-20T00:16:15;445.48;;;287.98;;
55268;SDS011;41131;42.990;21.954;2023-12-20T00:18:41;421.92;;;274.80;;
55268;SDS011;41131;42.990;21.954;2023-12-20T00:21:07;470.40;;;304.52;;
55268;SDS011;41131;42.990;21.954;2023-12-20T00:23:33;494.98;;;326.40;;
55268;SDS011;41131;42.990;21.954;2023-12-20T00:25:59;483.00;;;318.52;;
55268;SDS011;41131;42.990;21.954;2023-12-20T00:28:25;466.73;;;307.77;;
55268;SDS011;41131;42.990;21.954;2023-12-20T00:30:51;540.15;;;386.65;;
55268;SDS011;41131;42.990;21.954;2023-12-20T00:33:18;595.35;;;425.10;;
55268;SDS011;41131;42.990;21.954;2023-12-20T00:35:44;553.80;;;400.25;;
55268;SDS011;41131;42.990;21.954;2023-12-20T00:38:10;564.20;;;406.45;;
55268;SDS011;41131;42.990;21.954;2023-12-20T00:40:36;484.40;;;333.33;;
55268;SDS011;41131;42.990;21.954;2023-12-20T00:43:03;468.48;;;324.65;;
55268;SDS011;41131;42.990;21.954;2023-12-20T00:45:29;416.48;;;271.40;;
55268;SDS011;41131;42.990;21.954;2023-12-20T00:47:55;430.13;;;281.27;;
55268;SDS011;41131;42.990;21.954;2023-12-20T00:50:21;400.25;;;268.30;;
55268;SDS011;41131;42.990;21.954;2023-12-20T00:52:47;301.52;;;198.23;;
55268;SDS011;41131;42.990;21.954;2023-12-20T00:55:13;224.82;;;145.48;;
55268;SDS011;41131;42.990;21.954;2023-12-20T00:57:40;172.75;;;115.35;;
55268;SDS011;41131;42.990;21.954;2023-12-20T01:00:06;135.15;;;89.00;;
55268;SDS011;41131;42.990;21.954;2023-12-20T01:02:34;118.57;;;81.53;;
55268;SDS011;41131;42.990;21.954;2023-12-20T01:05:01;113.90;;;75.65;;
55268;SDS011;41131;42.990;21.954;2023-12-20T01:07:27;107.07;;;72.57;;
55268;SDS011;41131;42.990;21.954;2023-12-20T01:09:54;116.43;;;78.85;;
55268;SDS011;41131;42.990;21.954;2023-12-20T01:12:20;143.02;;;89.97;;
55268;SDS011;41131;42.990;21.954;2023-12-20T01:14:46;133.05;;;83.22;;
55268;SDS011;41131;42.990;21.954;2023-12-20T01:17:12;129.52;;;83.70;;
55268;SDS011;41131;42.990;21.954;2023-12-20T01:19:38;132.15;;;83.78;;
55268;SDS011;41131;42.990;21.954;2023-12-20T01:22:04;103.13;;;72.50;;
55268;SDS011;41131;42.990;21.954;2023-12-20T01:24:30;113.90;;;76.22;;
55268;SDS011;41131;42.990;21.954;2023-12-20T01:26:57;117.45;;;77.70;;
55268;SDS011;41131;42.990;21.954;2023-12-20T01:29:23;95.75;;;65.53;;
55268;SDS011;41131;42.990;21.954;2023-12-20T01:31:49;91.70;;;60.10;;
55268;SDS011;41131;42.990;21.954;2023-12-20T01:34:15;84.13;;;58.95;;
55268;SDS011;41131;42.990;21.954;2023-12-20T01:36:41;84.30;;;57.85;;
55268;SDS011;41131;42.990;21.954;2023-12-20T01:39:07;78.85;;;53.80;;
55268;SDS011;41131;42.990;21.954;2023-12-20T01:41:33;76.90;;;53.65;;
55268;SDS011;41131;42.990;21.954;2023-12-20T01:43:59;91.97;;;56.40;;
55268;SDS011;41131;42.990;21.954;2023-12-20T01:46:25;168.70;;;92.07;;
55268;SDS011;41131;42.990;21.954;2023-12-20T01:48:52;122.90;;;75.63;;
55268;SDS011;41131;42.990;21.954;2023-12-20T01:51:18;115.18;;;69.72;;
55268;SDS011;41131;42.990;21.954;2023-12-20T01:53:45;92.13;;;61.20;;
55268;SDS011;41131;42.990;21.954;2023-12-20T01:56:12;109.22;;;76.53;;
55268;SDS011;41131;42.990;21.954;2023-12-20T01:58:45;156.95;;;105.95;;
55268;SDS011;41131;42.990;21.954;2023-12-20T02:01:12;224.18;;;152.02;;
55268;SDS011;41131;42.990;21.954;2023-12-20T02:03:39;254.10;;;176.65;;
55268;SDS011;41131;42.990;21.954;2023-12-20T02:06:06;472.70;;;269.17;;
55268;SDS011;41131;42.990;21.954;2023-12-20T02:08:33;418.98;;;271.63;;
55268;SDS011;41131;42.990;21.954;2023-12-20T02:10:59;431.02;;;289.30;;
55268;SDS011;41131;42.990;21.954;2023-12-20T02:13:25;425.83;;;287.08;;
55268;SDS011;41131;42.990;21.954;2023-12-20T02:15:52;413.77;;;285.88;;
55268;SDS011;41131;42.990;21.954;2023-12-20T02:18:18;414.13;;;277.33;;
55268;SDS011;41131;42.990;21.954;2023-12-20T02:20:44;440.23;;;292.83;;
55268;SDS011;41131;42.990;21.954;2023-12-20T02:23:10;437.67;;;284.13;;
55268;SDS011;41131;42.990;21.954;2023-12-20T02:25:36;402.55;;;273.60;;
55268;SDS011;41131;42.990;21.954;2023-12-20T02:28:02;395.45;;;272.15;;
55268;SDS011;41131;42.990;21.954;2023-12-20T02:30:29;392.73;;;272.83;;
55268;SDS011;41131;42.990;21.954;2023-12-20T02:32:55;392.75;;;279.45;;
55268;SDS011;41131;42.990;21.954;2023-12-20T02:35:22;394.17;;;280.02;;
55268;SDS011;41131;42.990;21.954;2023-12-20T02:37:48;374.92;;;264.73;;
55268;SDS011;41131;42.990;21.954;2023-12-20T02:40:14;380.42;;;266.10;;
55268;SDS011;41131;42.990;21.954;2023-12-20T02:42:40;362.60;;;251.63;;
55268;SDS011;41131;42.990;21.954;2023-12-20T02:45:07;389.42;;;268.08;;
55268;SDS011;41131;42.990;21.954;2023-12-20T02:47:33;394.23;;;258.90;;
55268;SDS011;41131;42.990;21.954;2023-12-20T02:49:59;413.23;;;255.27;;
55268;SDS011;41131;42.990;21.954;2023-12-20T02:52:25;363.10;;;225.32;;
55268;SDS011;41131;42.990;21.954;2023-12-20T02:54:51;398.20;;;205.40;;
55268;SDS011;41131;42.990;21.954;2023-12-20T02:57:17;395.95;;;208.23;;
55268;SDS011;41131;42.990;21.954;2023-12-20T02:59:44;396.73;;;190.43;;
55268;SDS011;41131;42.990;21.954;2023-12-20T03:02:10;359.85;;;168.63;;
55268;SDS011;41131;42.990;21.954;2023-12-20T03:04:36;415.30;;;179.55;;
55268;SDS011;41131;42.990;21.954;2023-12-20T03:07:02;373.23;;;180.15;;
55268;SDS011;41131;42.990;21.954;2023-12-20T03:09:28;269.20;;;166.75;;
55268;SDS011;41131;42.990;21.954;2023-12-20T03:11:54;228.57;;;153.10;;
55268;SDS011;41131;42.990;21.954;2023-12-20T03:14:20;180.13;;;122.38;;
55268;SDS011;41131;42.990;21.954;2023-12-20T03:16:47;175.80;;;116.97;;
55268;SDS011;41131;42.990;21.954;2023-12-20T03:19:13;152.10;;;103.30;;
55268;SDS011;41131;42.990;21.954;2023-12-20T03:21:39;142.50;;;97.68;;
55268;SDS011;41131;42.990;21.954;2023-12-20T03:24:05;130.85;;;88.80;;
55268;SDS011;41131;42.990;21.954;2023-12-20T03:26:31;150.98;;;99.47;;
55268;SDS011;41131;42.990;21.954;2023-12-20T03:28:57;134.75;;;89.70;;
55268;SDS011;41131;42.990;21.954;2023-12-20T03:31:23;98.07;;;64.30;;
55268;SDS011;41131;42.990;21.954;2023-12-20T03:33:49;94.60;;;66.47;;
55268;SDS011;41131;42.990;21.954;2023-12-20T03:36:17;104.18;;;68.97;;
55268;SDS011;41131;42.990;21.954;2023-12-20T03:38:43;104.30;;;68.20;;
55268;SDS011;41131;42.990;21.954;2023-12-20T03:41:09;99.13;;;65.32;;
55268;SDS011;41131;42.990;21.954;2023-12-20T03:43:35;95.88;;;63.65;;
55268;SDS011;41131;42.990;21.954;2023-12-20T03:46:03;97.38;;;64.05;;
55268;SDS011;41131;42.990;21.954;2023-12-20T03:48:29;92.97;;;63.35;;
55268;SDS011;41131;42.990;21.954;2023-12-20T03:50:56;92.20;;;58.95;;
55268;SDS011;41131;42.990;21.954;2023-12-20T03:53:22;97.32;;;63.80;;
55268;SDS011;41131;42.990;21.954;2023-12-20T03:55:48;81.85;;;55.30;;
55268;SDS011;41131;42.990;21.954;2023-12-20T03:58:14;77.65;;;52.97;;
55268;SDS011;41131;42.990;21.954;2023-12-20T04:00:40;78.10;;;53.50;;
55268;SDS011;41131;42.990;21.954;2023-12-20T04:03:06;80.03;;;52.88;;
55268;SDS011;41131;42.990;21.954;2023-12-20T04:05:33;77.00;;;51.78;;
55268;SDS011;41131;42.990;21.954;2023-12-20T04:07:59;76.95;;;53.72;;
55268;SDS011;41131;42.990;21.954;2023-12-20T04:10:25;83.88;;;56.47;;
55268;SDS011;41131;42.990;21.954;2023-12-20T04:12:52;84.47;;;56.30;;
55268;SDS011;41131;42.990;21.954;2023-12-20T04:15:18;92.00;;;59.55;;
55268;SDS011;41131;42.990;21.954;2023-12-20T04:17:44;94.57;;;62.83;;
55268;SDS011;41131;42.990;21.954;2023-12-20T04:20:10;100.60;;;67.07;;
55268;SDS011;41131;42.990;21.954;2023-12-20T04:22:37;91.25;;;61.55;;
55268;SDS011;41131;42.990;21.954;2023-12-20T04:25:03;99.85;;;64.45;;
55268;SDS011;41131;42.990;21.954;2023-12-20T04:27:30;92.07;;;60.15;;
55268;SDS011;41131;42.990;21.954;2023-12-20T04:29:56;92.43;;;60.20;;
55268;SDS011;41131;42.990;21.954;2023-12-20T04:32:22;83.28;;;56.00;;
55268;SDS011;41131;42.990;21.954;2023-12-20T04:34:48;88.63;;;61.90;;
55268;SDS011;41131;42.990;21.954;2023-12-20T04:37:14;85.93;;;62.47;;
55268;SDS011;41131;42.990;21.954;2023-12-20T04:39:40;88.95;;;59.40;;
55268;SDS011;41131;42.990;21.954;2023-12-20T04:42:07;83.25;;;57.83;;
55268;SDS011;41131;42.990;21.954;2023-12-20T04:44:33;94.15;;;58.42;;
55268;SDS011;41131;42.990;21.954;2023-12-20T04:46:59;107.45;;;67.85;;
55268;SDS011;41131;42.990;21.954;2023-12-20T04:49:26;100.78;;;67.22;;
55268;SDS011;41131;42.990;21.954;2023-12-20T04:51:52;115.50;;;76.25;;
55268;SDS011;41131;42.990;21.954;2023-12-20T04:54:18;125.45;;;86.82;;
55268;SDS011;41131;42.990;21.954;2023-12-20T04:56:44;136.23;;;91.15;;
55268;SDS011;41131;42.990;21.954;2023-12-20T04:59:10;134.38;;;89.55;;
55268;SDS011;41131;42.990;21.954;2023-12-20T05:01:38;124.10;;;84.82;;
55268;SDS011;41131;42.990;21.954;2023-12-20T05:04:04;135.57;;;91.75;;
55268;SDS011;41131;42.990;21.954;2023-12-20T05:06:30;119.35;;;83.68;;
55268;SDS011;41131;42.990;21.954;2023-12-20T05:08:56;129.05;;;87.63;;
55268;SDS011;41131;42.990;21.954;2023-12-20T05:11:22;127.38;;;88.45;;
55268;SDS011;41131;42.990;21.954;2023-12-20T05:13:48;122.10;;;83.55;;
55268;SDS011;41131;42.990;21.954;2023-12-20T05:16:14;137.98;;;93.53;;
55268;SDS011;41131;42.990;21.954;2023-12-20T05:18:43;137.40;;;93.30;;
55268;SDS011;41131;42.990;21.954;2023-12-20T05:21:09;141.60;;;95.55;;
55268;SDS011;41131;42.990;21.954;2023-12-20T05:23:35;150.20;;;104.32;;
55268;SDS011;41131;42.990;21.954;2023-12-20T05:26:01;177.73;;;125.35;;
55268;SDS011;41131;42.990;21.954;2023-12-20T05:28:27;197.52;;;138.40;;
55268;SDS011;41131;42.990;21.954;2023-12-20T05:30:53;190.10;;;130.90;;
55268;SDS011;41131;42.990;21.954;2023-12-20T05:33:19;169.80;;;115.30;;
55268;SDS011;41131;42.990;21.954;2023-12-20T05:35:46;161.52;;;113.00;;
55268;SDS011;41131;42.990;21.954;2023-12-20T05:38:12;156.25;;;102.60;;
55268;SDS011;41131;42.990;21.954;2023-12-20T05:40:38;157.40;;;105.72;;
55268;SDS011;41131;42.990;21.954;2023-12-20T05:43:04;164.02;;;108.10;;
55268;SDS011;41131;42.990;21.954;2023-12-20T05:45:30;164.07;;;111.03;;
55268;SDS011;41131;42.990;21.954;2023-12-20T05:47:56;179.52;;;118.15;;
55268;SDS011;41131;42.990;21.954;2023-12-20T05:50:23;243.73;;;151.32;;
55268;SDS011;41131;42.990;21.954;2023-12-20T05:52:50;264.98;;;168.30;;
55268;SDS011;41131;42.990;21.954;2023-12-20T05:55:16;250.75;;;160.90;;
55268;SDS011;41131;42.990;21.954;2023-12-20T05:57:42;197.25;;;130.50;;
55268;SDS011;41131;42.990;21.954;2023-12-20T06:00:08;184.27;;;123.00;;
55268;SDS011;41131;42.990;21.954;2023-12-20T06:02:35;187.88;;;125.30;;
55268;SDS011;41131;42.990;21.954;2023-12-20T06:05:02;185.70;;;121.93;;
55268;SDS011;41131;42.990;21.954;2023-12-20T06:07:28;173.10;;;114.75;;
55268;SDS011;41131;42.990;21.954;2023-12-20T06:09:54;171.52;;;109.40;;
55268;SDS011;41131;42.990;21.954;2023-12-20T06:12:20;154.35;;;103.00;;
55268;SDS011;41131;42.990;21.954;2023-12-20T06:14:46;166.38;;;111.70;;
55268;SDS011;41131;42.990;21.954;2023-12-20T06:17:13;147.55;;;95.95;;
55268;SDS011;41131;42.990;21.954;2023-12-20T06:19:39;163.38;;;105.07;;
55268;SDS011;41131;42.990;21.954;2023-12-20T06:22:05;172.43;;;106.53;;
55268;SDS011;41131;42.990;21.954;2023-12-20T06:24:31;156.32;;;101.82;;
55268;SDS011;41131;42.990;21.954;2023-12-20T06:26:59;186.50;;;122.43;;
55268;SDS011;41131;42.990;21.954;2023-12-20T06:29:25;157.07;;;97.88;;
55268;SDS011;41131;42.990;21.954;2023-12-20T06:31:52;193.25;;;131.95;;
55268;SDS011;41131;42.990;21.954;2023-12-20T06:34:18;162.65;;;104.78;;
55268;SDS011;41131;42.990;21.954;2023-12-20T06:36:44;139.07;;;90.03;;
55268;SDS011;41131;42.990;21.954;2023-12-20T06:39:10;133.25;;;83.70;;
55268;SDS011;41131;42.990;21.954;2023-12-20T06:41:37;152.18;;;92.10;;
55268;SDS011;41131;42.990;21.954;2023-12-20T06:44:03;151.48;;;104.15;;
55268;SDS011;41131;42.990;21.954;2023-12-20T06:46:30;164.10;;;106.15;;
55268;SDS011;41131;42.990;21.954;2023-12-20T06:48:56;166.90;;;96.95;;
55268;SDS011;41131;42.990;21.954;2023-12-20T06:51:22;127.57;;;84.68;;
55268;SDS011;41131;42.990;21.954;2023-12-20T06:53:50;116.25;;;76.32;;
55268;SDS011;41131;42.990;21.954;2023-12-20T06:56:17;144.60;;;90.55;;
55268;SDS011;41131;42.990;21.954;2023-12-20T06:58:43;118.20;;;78.72;;
55268;SDS011;41131;42.990;21.954;2023-12-20T07:01:13;128.18;;;84.15;;
55268;SDS011;41131;42.990;21.954;2023-12-20T07:03:39;132.65;;;81.65;;
55268;SDS011;41131;42.990;21.954;2023-12-20T07:06:05;128.10;;;86.28;;
55268;SDS011;41131;42.990;21.954;2023-12-20T07:08:31;120.97;;;80.55;;
55268;SDS011;41131;42.990;21.954;2023-12-20T07:10:58;138.50;;;91.53;;
55268;SDS011;41131;42.990;21.954;2023-12-20T07:13:24;131.93;;;89.97;;
55268;SDS011;41131;42.990;21.954;2023-12-20T07:15:50;139.98;;;94.03;;
55268;SDS011;41131;42.990;21.954;2023-12-20T07:18:16;117.63;;;80.25;;
55268;SDS011;41131;42.990;21.954;2023-12-20T07:20:42;138.52;;;99.22;;
55268;SDS011;41131;42.990;21.954;2023-12-20T07:23:08;139.27;;;98.05;;
55268;SDS011;41131;42.990;21.954;2023-12-20T07:25:35;128.55;;;92.65;;
55268;SDS011;41131;42.990;21.954;2023-12-20T07:28:01;129.95;;;91.38;;
55268;SDS011;41131;42.990;21.954;2023-12-20T07:30:27;127.82;;;89.28;;
55268;SDS011;41131;42.990;21.954;2023-12-20T07:32:53;142.90;;;95.97;;
55268;SDS011;41131;42.990;21.954;2023-12-20T07:35:19;152.05;;;102.65;;
55268;SDS011;41131;42.990;21.954;2023-12-20T07:37:45;144.35;;;100.05;;
55268;SDS011;41131;42.990;21.954;2023-12-20T07:40:11;147.20;;;106.05;;
55268;SDS011;41131;42.990;21.954;2023-12-20T07:42:37;204.80;;;137.20;;
55268;SDS011;41131;42.990;21.954;2023-12-20T07:45:04;220.13;;;141.60;;
55268;SDS011;41131;42.990;21.954;2023-12-20T07:47:30;304.65;;;191.23;;
55268;SDS011;41131;42.990;21.954;2023-12-20T07:49:56;324.27;;;211.13;;
55268;SDS011;41131;42.990;21.954;2023-12-20T07:52:22;336.92;;;204.80;;
55268;SDS011;41131;42.990;21.954;2023-12-20T07:54:48;245.65;;;160.90;;
55268;SDS011;41131;42.990;21.954;2023-12-20T07:57:14;254.85;;;173.98;;
55268;SDS011;41131;42.990;21.954;2023-12-20T07:59:41;252.40;;;179.07;;
55268;SDS011;41131;42.990;21.954;2023-12-20T08:02:07;192.63;;;139.80;;
55268;SDS011;41131;42.990;21.954;2023-12-20T08:04:33;214.40;;;149.40;;
55268;SDS011;41131;42.990;21.954;2023-12-20T08:06:59;173.13;;;125.07;;
55268;SDS011;41131;42.990;21.954;2023-12-20T08:09:25;233.52;;;162.05;;
55268;SDS011;41131;42.990;21.954;2023-12-20T08:11:52;234.13;;;166.10;;
55268;SDS011;41131;42.990;21.954;2023-12-20T08:14:18;229.23;;;166.40;;
55268;SDS011;41131;42.990;21.954;2023-12-20T08:16:44;264.83;;;199.18;;
55268;SDS011;41131;42.990;21.954;2023-12-20T08:19:10;309.02;;;230.98;;
55268;SDS011;41131;42.990;21.954;2023-12-20T08:21:36;313.77;;;228.40;;
55268;SDS011;41131;42.990;21.954;2023-12-20T08:24:02;333.70;;;238.05;;
55268;SDS011;41131;42.990;21.954;2023-12-20T08:26:28;332.52;;;237.43;;
55268;SDS011;41131;42.990;21.954;2023-12-20T08:28:55;335.77;;;245.60;;
55268;SDS011;41131;42.990;21.954;2023-12-20T08:31:21;340.15;;;250.13;;
55268;SDS011;41131;42.990;21.954;2023-12-20T08:33:47;368.58;;;270.92;;
55268;SDS011;41131;42.990;21.954;2023-12-20T08:36:14;351.85;;;259.52;;
55268;SDS011;41131;42.990;21.954;2023-12-20T08:38:40;393.10;;;292.70;;
55268;SDS011;41131;42.990;21.954;2023-12-20T08:41:06;426.15;;;312.00;;
55268;SDS011;41131;42.990;21.954;2023-12-20T08:43:33;429.25;;;312.73;;
55268;SDS011;41131;42.990;21.954;2023-12-20T08:46:00;412.00;;;312.77;;
55268;SDS011;41131;42.990;21.954;2023-12-20T08:48:27;432.02;;;326.00;;
55268;SDS011;41131;42.990;21.954;2023-12-20T08:50:53;459.10;;;348.30;;
55268;SDS011;41131;42.990;21.954;2023-12-20T08:53:19;483.85;;;358.58;;
55268;SDS011;41131;42.990;21.954;2023-12-20T08:55:46;493.60;;;356.05;;
55268;SDS011;41131;42.990;21.954;2023-12-20T08:58:12;562.78;;;405.20;;
55268;SDS011;41131;42.990;21.954;2023-12-20T09:00:38;497.92;;;346.70;;
55268;SDS011;41131;42.990;21.954;2023-12-20T09:03:05;487.25;;;332.77;;
55268;SDS011;41131;42.990;21.954;2023-12-20T09:05:31;485.83;;;339.90;;
55268;SDS011;41131;42.990;21.954;2023-12-20T09:07:57;484.50;;;352.65;;
55268;SDS011;41131;42.990;21.954;2023-12-20T09:10:23;490.77;;;363.48;;
55268;SDS011;41131;42.990;21.954;2023-12-20T09:12:49;488.63;;;360.98;;
55268;SDS011;41131;42.990;21.954;2023-12-20T09:15:16;529.72;;;382.17;;
55268;SDS011;41131;42.990;21.954;2023-12-20T09:17:42;621.70;;;422.55;;
55268;SDS011;41131;42.990;21.954;2023-12-20T09:20:09;650.95;;;439.48;;
55268;SDS011;41131;42.990;21.954;2023-12-20T09:22:35;540.47;;;385.30;;
55268;SDS011;41131;42.990;21.954;2023-12-20T09:25:03;439.88;;;315.25;;
55268;SDS011;41131;42.990;21.954;2023-12-20T09:27:29;456.67;;;323.35;;
55268;SDS011;41131;42.990;21.954;2023-12-20T09:29:55;411.13;;;290.88;;
55268;SDS011;41131;42.990;21.954;2023-12-20T09:32:21;409.60;;;286.00;;
55268;SDS011;41131;42.990;21.954;2023-12-20T09:34:48;377.83;;;272.48;;
55268;SDS011;41131;42.990;21.954;2023-12-20T09:37:14;362.02;;;267.50;;
55268;SDS011;41131;42.990;21.954;2023-12-20T09:39:40;361.60;;;263.13;;
55268;SDS011;41131;42.990;21.954;2023-12-20T09:42:06;362.58;;;268.80;;
55268;SDS011;41131;42.990;21.954;2023-12-20T09:44:33;261.27;;;196.82;;
55268;SDS011;41131;42.990;21.954;2023-12-20T09:47:02;272.13;;;199.02;;
55268;SDS011;41131;42.990;21.954;2023-12-20T09:49:29;368.13;;;273.42;;
55268;SDS011;41131;42.990;21.954;2023-12-20T09:51:57;412.05;;;293.40;;
55268;SDS011;41131;42.990;21.954;2023-12-20T09:54:24;419.10;;;294.42;;
55268;SDS011;41131;42.990;21.954;2023-12-20T09:56:51;553.45;;;376.63;;
55268;SDS011;41131;42.990;21.954;2023-12-20T09:59:17;426.25;;;303.50;;
55268;SDS011;41131;42.990;21.954;2023-12-20T10:01:43;402.45;;;295.33;;
55268;SDS011;41131;42.990;21.954;2023-12-20T10:04:10;380.15;;;293.42;;
55268;SDS011;41131;42.990;21.954;2023-12-20T10:06:41;399.00;;;307.67;;
55268;SDS011;41131;42.990;21.954;2023-12-20T10:09:08;390.45;;;297.38;;
55268;SDS011;41131;42.990;21.954;2023-12-20T10:11:35;379.08;;;281.95;;
55268;SDS011;41131;42.990;21.954;2023-12-20T10:14:02;365.27;;;285.48;;
55268;SDS011;41131;42.990;21.954;2023-12-20T10:16:29;403.95;;;311.73;;
55268;SDS011;41131;42.990;21.954;2023-12-20T10:18:55;429.08;;;329.60;;
55268;SDS011;41131;42.990;21.954;2023-12-20T10:21:22;425.30;;;333.80;;
55268;SDS011;41131;42.990;21.954;2023-12-20T10:23:51;397.30;;;316.17;;
55268;SDS011;41131;42.990;21.954;2023-12-20T10:26:20;456.35;;;358.73;;
55268;SDS011;41131;42.990;21.954;2023-12-20T10:28:49;468.80;;;371.17;;
55268;SDS011;41131;42.990;21.954;2023-12-20T10:31:34;532.55;;;427.27;;
55268;SDS011;41131;42.990;21.954;2023-12-20T10:34:01;533.35;;;444.30;;
55268;SDS011;41131;42.990;21.954;2023-12-20T10:36:28;534.42;;;442.48;;
55268;SDS011;41131;42.990;21.954;2023-12-20T10:38:55;574.55;;;485.35;;
55268;SDS011;41131;42.990;21.954;2023-12-20T10:41:26;581.72;;;499.30;;
55268;SDS011;41131;42.990;21.954;2023-12-20T10:44:04;597.45;;;509.15;;
55268;SDS011;41131;42.990;21.954;2023-12-20T10:46:30;606.03;;;505.13;;
55268;SDS011;41131;42.990;21.954;2023-12-20T10:48:57;606.38;;;513.50;;
55268;SDS011;41131;42.990;21.954;2023-12-20T10:51:24;593.00;;;503.88;;
55268;SDS011;41131;42.990;21.954;2023-12-20T10:53:55;584.75;;;499.52;;
55268;SDS011;41131;42.990;21.954;2023-12-20T10:56:21;580.95;;;489.52;;
55268;SDS011;41131;42.990;21.954;2023-12-20T10:58:48;578.35;;;489.58;;
55268;SDS011;41131;42.990;21.954;2023-12-20T11:01:15;601.92;;;515.42;;
55268;SDS011;41131;42.990;21.954;2023-12-20T11:03:44;595.15;;;502.95;;
55268;SDS011;41131;42.990;21.954;2023-12-20T11:06:32;593.03;;;501.80;;
55268;SDS011;41131;42.990;21.954;2023-12-20T11:11:40;593.72;;;504.45;;
55268;SDS011;41131;42.990;21.954;2023-12-20T11:14:11;546.85;;;459.92;;
55268;SDS011;41131;42.990;21.954;2023-12-20T11:16:39;550.35;;;457.88;;
55268;SDS011;41131;42.990;21.954;2023-12-20T11:19:07;530.42;;;441.00;;
55268;SDS011;41131;42.990;21.954;2023-12-20T11:21:33;479.10;;;381.13;;
55268;SDS011;41131;42.990;21.954;2023-12-20T11:23:59;458.23;;;368.23;;
55268;SDS011;41131;42.990;21.954;2023-12-20T11:26:29;456.77;;;357.60;;
55268;SDS011;41131;42.990;21.954;2023-12-20T11:31:41;415.67;;;332.55;;
55268;SDS011;41131;42.990;21.954;2023-12-20T11:34:13;387.88;;;310.13;;
55268;SDS011;41131;42.990;21.954;2023-12-20T11:39:05;380.15;;;299.00;;
55268;SDS011;41131;42.990;21.954;2023-12-20T11:41:33;369.75;;;299.13;;
55268;SDS011;41131;42.990;21.954;2023-12-20T11:44:00;369.77;;;300.98;;
55268;SDS011;41131;42.990;21.954;2023-12-20T11:46:26;389.33;;;313.15;;
55268;SDS011;41131;42.990;21.954;2023-12-20T11:48:52;373.15;;;300.92;;
55268;SDS011;41131;42.990;21.954;2023-12-20T11:51:18;356.00;;;286.85;;
55268;SDS011;41131;42.990;21.954;2023-12-20T11:53:44;373.58;;;295.58;;
55268;SDS011;41131;42.990;21.954;2023-12-20T11:56:10;385.98;;;309.55;;
55268;SDS011;41131;42.990;21.954;2023-12-20T11:58:37;415.77;;;331.30;;
55268;SDS011;41131;42.990;21.954;2023-12-20T12:01:03;400.42;;;313.63;;
55268;SDS011;41131;42.990;21.954;2023-12-20T12:03:32;377.38;;;295.02;;
55268;SDS011;41131;42.990;21.954;2023-12-20T12:05:58;352.63;;;295.25;;
55268;SDS011;41131;42.990;21.954;2023-12-20T12:08:25;331.25;;;272.40;;
55268;SDS011;41131;42.990;21.954;2023-12-20T12:10:51;344.33;;;279.30;;
55268;SDS011;41131;42.990;21.954;2023-12-20T12:13:17;321.27;;;257.63;;
55268;SDS011;41131;42.990;21.954;2023-12-20T12:15:43;330.33;;;262.23;;
55268;SDS011;41131;42.990;21.954;2023-12-20T12:18:09;334.15;;;265.17;;
55268;SDS011;41131;42.990;21.954;2023-12-20T12:20:35;343.17;;;268.60;;
55268;SDS011;41131;42.990;21.954;2023-12-20T12:23:02;329.27;;;267.70;;
55268;SDS011;41131;42.990;21.954;2023-12-20T12:25:29;328.27;;;259.38;;
55268;SDS011;41131;42.990;21.954;2023-12-20T12:27:56;232.57;;;190.70;;
55268;SDS011;41131;42.990;21.954;2023-12-20T12:30:23;246.32;;;200.90;;
55268;SDS011;41131;42.990;21.954;2023-12-20T12:32:52;272.58;;;209.15;;
55268;SDS011;41131;42.990;21.954;2023-12-20T12:35:19;260.30;;;207.10;;
55268;SDS011;41131;42.990;21.954;2023-12-20T12:37:45;270.30;;;211.95;;
55268;SDS011;41131;42.990;21.954;2023-12-20T12:40:12;248.60;;;191.48;;
55268;SDS011;41131;42.990;21.954;2023-12-20T12:42:39;229.27;;;180.40;;
55268;SDS011;41131;42.990;21.954;2023-12-20T12:45:05;229.82;;;173.45;;
55268;SDS011;41131;42.990;21.954;2023-12-20T12:47:32;215.07;;;164.07;;
55268;SDS011;41131;42.990;21.954;2023-12-20T12:49:59;211.20;;;162.77;;
55268;SDS011;41131;42.990;21.954;2023-12-20T12:52:24;203.45;;;155.80;;
55268;SDS011;41131;42.990;21.954;2023-12-20T12:54:51;175.68;;;134.40;;
55268;SDS011;41131;42.990;21.954;2023-12-20T12:57:18;182.70;;;134.63;;
55268;SDS011;41131;42.990;21.954;2023-12-20T12:59:44;149.95;;;115.30;;
55268;SDS011;41131;42.990;21.954;2023-12-20T13:02:11;139.88;;;112.60;;
55268;SDS011;41131;42.990;21.954;2023-12-20T13:04:38;140.70;;;112.75;;
55268;SDS011;41131;42.990;21.954;2023-12-20T13:07:05;153.15;;;114.60;;
55268;SDS011;41131;42.990;21.954;2023-12-20T13:09:31;163.75;;;118.20;;
55268;SDS011;41131;42.990;21.954;2023-12-20T13:11:57;163.50;;;112.32;;
55268;SDS011;41131;42.990;21.954;2023-12-20T13:14:24;131.88;;;100.38;;
55268;SDS011;41131;42.990;21.954;2023-12-20T13:16:50;126.68;;;90.35;;
55268;SDS011;41131;42.990;21.954;2023-12-20T13:19:16;123.70;;;91.78;;
55268;SDS011;41131;42.990;21.954;2023-12-20T13:21:42;110.40;;;86.15;;
55268;SDS011;41131;42.990;21.954;2023-12-20T13:24:08;114.22;;;83.18;;
55268;SDS011;41131;42.990;21.954;2023-12-20T13:26:34;120.38;;;92.00;;
55268;SDS011;41131;42.990;21.954;2023-12-20T13:29:01;121.50;;;86.90;;
55268;SDS011;41131;42.990;21.954;2023-12-20T13:31:27;126.32;;;96.00;;
55268;SDS011;41131;42.990;21.954;2023-12-20T13:33:53;141.27;;;97.70;;
55268;SDS011;41131;42.990;21.954;2023-12-20T13:36:19;118.00;;;88.35;;
55268;SDS011;41131;42.990;21.954;2023-12-20T13:38:45;117.28;;;86.35;;
55268;SDS011;41131;42.990;21.954;2023-12-20T13:41:12;108.00;;;83.30;;
55268;SDS011;41131;42.990;21.954;2023-12-20T13:43:38;130.82;;;91.05;;
55268;SDS011;41131;42.990;21.954;2023-12-20T13:46:04;129.30;;;91.80;;
55268;SDS011;41131;42.990;21.954;2023-12-20T13:48:30;142.10;;;104.32;;
55268;SDS011;41131;42.990;21.954;2023-12-20T13:50:56;128.57;;;96.55;;
55268;SDS011;41131;42.990;21.954;2023-12-20T13:53:22;152.80;;;106.70;;